sensor_id;sensor_type;location;lat;lon;timestamp;temperature;humidity
46055;DHT22;31788;6.954;-71.872;2023-02-28T00:00:43;28.90;92.10
46055;DHT22;31788;6.954;-71.872;2023-02-28T00:03:10;28.90;92.00
46055;DHT22;31788;6.954;-71.872;2023-02-28T00:05:36;28.80;91.90
46055;DHT22;31788;6.954;-71.872;2023-02-28T00:08:03;28.80;91.90
46055;DHT22;31788;6.954;-71.872;2023-02-28T00:10:31;28.80;91.80
46055;DHT22;31788;6.954;-71.872;2023-02-28T00:13:03;28.80;91.90
46055;DHT22;31788;6.954;-71.872;2023-02-28T00:15:31;28.70;91.70
46055;DHT22;31788;6.954;-71.872;2023-02-28T00:17:58;28.70;91.70
46055;DHT22;31788;6.954;-71.872;2023-02-28T00:20:25;28.70;91.50
46055;DHT22;31788;6.954;-71.872;2023-02-28T00:22:54;28.70;91.60
46055;DHT22;31788;6.954;-71.872;2023-02-28T00:25:23;28.70;91.50
46055;DHT22;31788;6.954;-71.872;2023-02-28T00:27:50;28.70;91.50
46055;DHT22;31788;6.954;-71.872;2023-02-28T00:30:22;28.60;91.30
46055;DHT22;31788;6.954;-71.872;2023-02-28T00:32:50;28.60;91.10
46055;DHT22;31788;6.954;-71.872;2023-02-28T00:35:17;28.60;91.10
46055;DHT22;31788;6.954;-71.872;2023-02-28T00:37:43;28.60;91.00
46055;DHT22;31788;6.954;-71.872;2023-02-28T00:40:11;28.50;90.80
46055;DHT22;31788;6.954;-71.872;2023-02-28T00:42:38;28.60;90.90
46055;DHT22;31788;6.954;-71.872;2023-02-28T00:45:12;28.50;90.80
46055;DHT22;31788;6.954;-71.872;2023-02-28T00:47:39;28.50;90.80
46055;DHT22;31788;6.954;-71.872;2023-02-28T00:50:06;28.50;90.80
46055;DHT22;31788;6.954;-71.872;2023-02-28T00:52:33;28.50;90.60
46055;DHT22;31788;6.954;-71.872;2023-02-28T00:54:59;28.50;90.70
46055;DHT22;31788;6.954;-71.872;2023-02-28T00:57:26;28.40;90.70
46055;DHT22;31788;6.954;-71.872;2023-02-28T00:59:52;28.40;90.60
46055;DHT22;31788;6.954;-71.872;2023-02-28T01:02:22;28.40;90.70
46055;DHT22;31788;6.954;-71.872;2023-02-28T01:04:49;28.40;90.50
46055;DHT22;31788;6.954;-71.872;2023-02-28T01:07:15;28.30;90.40
46055;DHT22;31788;6.954;-71.872;2023-02-28T01:09:42;28.40;90.40
46055;DHT22;31788;6.954;-71.872;2023-02-28T01:12:09;28.40;90.40
46055;DHT22;31788;6.954;-71.872;2023-02-28T01:14:35;28.40;90.20
46055;DHT22;31788;6.954;-71.872;2023-02-28T01:17:07;28.30;90.10
46055;DHT22;31788;6.954;-71.872;2023-02-28T01:19:35;28.30;90.00
46055;DHT22;31788;6.954;-71.872;2023-02-28T01:22:03;28.40;89.90
46055;DHT22;31788;6.954;-71.872;2023-02-28T01:24:32;28.40;89.80
46055;DHT22;31788;6.954;-71.872;2023-02-28T01:26:58;28.40;89.60
46055;DHT22;31788;6.954;-71.872;2023-02-28T01:29:25;28.40;89.30
46055;DHT22;31788;6.954;-71.872;2023-02-28T01:31:51;28.40;89.20
46055;DHT22;31788;6.954;-71.872;2023-02-28T01:34:18;28.40;89.20
46055;DHT22;31788;6.954;-71.872;2023-02-28T01:36:47;28.40;89.20
46055;DHT22;31788;6.954;-71.872;2023-02-28T01:39:14;28.40;89.00
46055;DHT22;31788;6.954;-71.872;2023-02-28T01:41:44;28.40;89.60
46055;DHT22;31788;6.954;-71.872;2023-02-28T01:47:15;28.40;88.60
46055;DHT22;31788;6.954;-71.872;2023-02-28T01:49:42;28.40;88.40
46055;DHT22;31788;6.954;-71.872;2023-02-28T01:52:11;28.40;88.50
46055;DHT22;31788;6.954;-71.872;2023-02-28T01:54:49;28.40;88.20
46055;DHT22;31788;6.954;-71.872;2023-02-28T01:57:21;28.40;88.60
46055;DHT22;31788;6.954;-71.872;2023-02-28T02:00:02;28.30;88.70
46055;DHT22;31788;6.954;-71.872;2023-02-28T02:02:31;28.30;88.60
46055;DHT22;31788;6.954;-71.872;2023-02-28T02:05:05;28.30;88.40
46055;DHT22;31788;6.954;-71.872;2023-02-28T02:07:35;28.40;88.00
46055;DHT22;31788;6.954;-71.872;2023-02-28T02:10:16;28.30;87.90
46055;DHT22;31788;6.954;-71.872;2023-02-28T02:18:45;28.30;87.50
46055;DHT22;31788;6.954;-71.872;2023-02-28T02:36:00;28.30;87.00
46055;DHT22;31788;6.954;-71.872;2023-02-28T02:38:53;28.30;86.80
46055;DHT22;31788;6.954;-71.872;2023-02-28T02:41:40;28.40;87.00
46055;DHT22;31788;6.954;-71.872;2023-02-28T02:44:12;28.40;86.90
46055;DHT22;31788;6.954;-71.872;2023-02-28T02:46:44;28.30;86.80
46055;DHT22;31788;6.954;-71.872;2023-02-28T02:49:26;28.40;86.80
46055;DHT22;31788;6.954;-71.872;2023-02-28T02:51:55;28.40;86.90
46055;DHT22;31788;6.954;-71.872;2023-02-28T02:54:30;28.40;86.90
46055;DHT22;31788;6.954;-71.872;2023-02-28T02:59:44;28.30;87.00
46055;DHT22;31788;6.954;-71.872;2023-02-28T03:02:12;28.30;87.60
46055;DHT22;31788;6.954;-71.872;2023-02-28T03:04:51;28.30;87.30
46055;DHT22;31788;6.954;-71.872;2023-02-28T03:07:19;28.30;87.10
46055;DHT22;31788;6.954;-71.872;2023-02-28T03:09:53;28.30;86.80
46055;DHT22;31788;6.954;-71.872;2023-02-28T03:12:21;28.30;86.70
46055;DHT22;31788;6.954;-71.872;2023-02-28T03:17:47;28.30;86.50
46055;DHT22;31788;6.954;-71.872;2023-02-28T03:23:38;28.30;86.40
46055;DHT22;31788;6.954;-71.872;2023-02-28T03:26:23;28.30;86.60
46055;DHT22;31788;6.954;-71.872;2023-02-28T03:31:34;28.40;86.90
46055;DHT22;31788;6.954;-71.872;2023-02-28T03:34:39;28.30;86.90
46055;DHT22;31788;6.954;-71.872;2023-02-28T03:37:14;28.30;87.00
46055;DHT22;31788;6.954;-71.872;2023-02-28T03:39:53;28.30;87.10
46055;DHT22;31788;6.954;-71.872;2023-02-28T03:42:25;28.30;87.30
46055;DHT22;31788;6.954;-71.872;2023-02-28T03:45:02;28.30;87.30
46055;DHT22;31788;6.954;-71.872;2023-02-28T03:50:29;28.30;87.00
46055;DHT22;31788;6.954;-71.872;2023-02-28T03:53:15;28.30;86.90
46055;DHT22;31788;6.954;-71.872;2023-02-28T03:58:45;28.30;87.10
46055;DHT22;31788;6.954;-71.872;2023-02-28T04:01:30;28.30;87.70
46055;DHT22;31788;6.954;-71.872;2023-02-28T04:03:59;28.20;87.60
46055;DHT22;31788;6.954;-71.872;2023-02-28T04:06:25;28.20;87.90
46055;DHT22;31788;6.954;-71.872;2023-02-28T04:08:53;28.20;87.40
46055;DHT22;31788;6.954;-71.872;2023-02-28T04:11:23;28.20;87.60
46055;DHT22;31788;6.954;-71.872;2023-02-28T04:13:53;28.20;87.50
46055;DHT22;31788;6.954;-71.872;2023-02-28T04:16:19;28.20;87.30
46055;DHT22;31788;6.954;-71.872;2023-02-28T04:18:46;28.20;87.10
46055;DHT22;31788;6.954;-71.872;2023-02-28T04:21:13;28.20;86.90
46055;DHT22;31788;6.954;-71.872;2023-02-28T04:23:40;28.20;87.30
46055;DHT22;31788;6.954;-71.872;2023-02-28T04:26:09;28.20;87.40
46055;DHT22;31788;6.954;-71.872;2023-02-28T04:28:37;28.20;86.70
46055;DHT22;31788;6.954;-71.872;2023-02-28T04:31:05;28.20;87.00
46055;DHT22;31788;6.954;-71.872;2023-02-28T04:33:32;28.20;86.90
46055;DHT22;31788;6.954;-71.872;2023-02-28T04:36:07;28.20;86.80
46055;DHT22;31788;6.954;-71.872;2023-02-28T04:38:36;28.20;86.80
46055;DHT22;31788;6.954;-71.872;2023-02-28T04:41:04;28.20;86.90
46055;DHT22;31788;6.954;-71.872;2023-02-28T04:43:31;28.20;87.10
46055;DHT22;31788;6.954;-71.872;2023-02-28T04:46:00;28.20;87.20
46055;DHT22;31788;6.954;-71.872;2023-02-28T04:48:33;28.10;87.30
46055;DHT22;31788;6.954;-71.872;2023-02-28T04:51:05;28.00;87.30
46055;DHT22;31788;6.954;-71.872;2023-02-28T04:53:32;28.00;87.90
46055;DHT22;31788;6.954;-71.872;2023-02-28T04:55:59;28.00;88.10
46055;DHT22;31788;6.954;-71.872;2023-02-28T04:58:26;27.90;88.30
46055;DHT22;31788;6.954;-71.872;2023-02-28T05:00:53;27.90;88.20
46055;DHT22;31788;6.954;-71.872;2023-02-28T05:03:21;27.80;88.40
46055;DHT22;31788;6.954;-71.872;2023-02-28T05:05:48;27.80;88.00
46055;DHT22;31788;6.954;-71.872;2023-02-28T05:08:15;27.90;87.50
46055;DHT22;31788;6.954;-71.872;2023-02-28T05:10:42;27.90;87.50
46055;DHT22;31788;6.954;-71.872;2023-02-28T05:13:12;27.90;87.70
46055;DHT22;31788;6.954;-71.872;2023-02-28T05:15:39;27.90;87.90
46055;DHT22;31788;6.954;-71.872;2023-02-28T05:18:05;27.80;87.80
46055;DHT22;31788;6.954;-71.872;2023-02-28T05:20:32;27.90;88.10
46055;DHT22;31788;6.954;-71.872;2023-02-28T05:22:59;27.80;87.60
46055;DHT22;31788;6.954;-71.872;2023-02-28T05:25:26;27.90;87.60
46055;DHT22;31788;6.954;-71.872;2023-02-28T05:27:53;27.80;87.40
46055;DHT22;31788;6.954;-71.872;2023-02-28T05:30:19;27.90;87.40
46055;DHT22;31788;6.954;-71.872;2023-02-28T05:32:50;27.90;87.40
46055;DHT22;31788;6.954;-71.872;2023-02-28T05:35:17;27.90;87.20
46055;DHT22;31788;6.954;-71.872;2023-02-28T05:37:44;27.90;87.40
46055;DHT22;31788;6.954;-71.872;2023-02-28T05:40:11;27.90;87.00
46055;DHT22;31788;6.954;-71.872;2023-02-28T05:42:38;28.00;87.00
46055;DHT22;31788;6.954;-71.872;2023-02-28T05:45:05;27.90;86.90
46055;DHT22;31788;6.954;-71.872;2023-02-28T05:47:32;28.00;86.90
46055;DHT22;31788;6.954;-71.872;2023-02-28T05:49:59;28.00;87.00
46055;DHT22;31788;6.954;-71.872;2023-02-28T05:52:27;28.00;86.70
46055;DHT22;31788;6.954;-71.872;2023-02-28T05:54:54;27.90;86.50
46055;DHT22;31788;6.954;-71.872;2023-02-28T05:57:20;27.90;86.20
46055;DHT22;31788;6.954;-71.872;2023-02-28T05:59:47;28.00;86.50
46055;DHT22;31788;6.954;-71.872;2023-02-28T06:02:15;28.00;86.50
46055;DHT22;31788;6.954;-71.872;2023-02-28T06:04:43;27.90;86.50
46055;DHT22;31788;6.954;-71.872;2023-02-28T06:07:10;27.90;86.40
46055;DHT22;31788;6.954;-71.872;2023-02-28T06:09:37;27.90;86.40
46055;DHT22;31788;6.954;-71.872;2023-02-28T06:12:05;27.90;86.40
46055;DHT22;31788;6.954;-71.872;2023-02-28T06:14:33;27.90;86.30
46055;DHT22;31788;6.954;-71.872;2023-02-28T06:17:01;27.90;86.20
46055;DHT22;31788;6.954;-71.872;2023-02-28T06:19:28;28.00;85.80
46055;DHT22;31788;6.954;-71.872;2023-02-28T06:21:56;28.00;85.60
46055;DHT22;31788;6.954;-71.872;2023-02-28T06:24:24;28.00;86.40
46055;DHT22;31788;6.954;-71.872;2023-02-28T06:26:54;28.00;85.00
46055;DHT22;31788;6.954;-71.872;2023-02-28T06:29:20;28.00;85.10
46055;DHT22;31788;6.954;-71.872;2023-02-28T06:31:47;28.00;85.80
46055;DHT22;31788;6.954;-71.872;2023-02-28T06:34:16;28.00;85.30
46055;DHT22;31788;6.954;-71.872;2023-02-28T06:36:43;28.00;85.40
46055;DHT22;31788;6.954;-71.872;2023-02-28T06:39:10;28.00;85.50
46055;DHT22;31788;6.954;-71.872;2023-02-28T06:41:36;28.00;85.70
46055;DHT22;31788;6.954;-71.872;2023-02-28T06:44:12;28.00;85.70
46055;DHT22;31788;6.954;-71.872;2023-02-28T06:46:40;28.00;85.90
46055;DHT22;31788;6.954;-71.872;2023-02-28T06:49:07;28.00;85.80
46055;DHT22;31788;6.954;-71.872;2023-02-28T06:51:41;28.00;85.70
46055;DHT22;31788;6.954;-71.872;2023-02-28T06:54:09;28.00;85.60
46055;DHT22;31788;6.954;-71.872;2023-02-28T06:56:36;28.00;85.70
46055;DHT22;31788;6.954;-71.872;2023-02-28T06:59:03;28.00;85.60
46055;DHT22;31788;6.954;-71.872;2023-02-28T07:01:30;28.00;86.00
46055;DHT22;31788;6.954;-71.872;2023-02-28T07:04:00;27.90;85.60
46055;DHT22;31788;6.954;-71.872;2023-02-28T07:06:28;27.90;85.60
46055;DHT22;31788;6.954;-71.872;2023-02-28T07:08:54;27.90;85.40
46055;DHT22;31788;6.954;-71.872;2023-02-28T07:11:23;28.00;85.40
46055;DHT22;31788;6.954;-71.872;2023-02-28T07:13:54;28.00;85.40
46055;DHT22;31788;6.954;-71.872;2023-02-28T07:16:22;28.00;85.40
46055;DHT22;31788;6.954;-71.872;2023-02-28T07:18:49;28.00;85.40
46055;DHT22;31788;6.954;-71.872;2023-02-28T07:21:16;28.00;85.40
46055;DHT22;31788;6.954;-71.872;2023-02-28T07:23:42;28.00;85.60
46055;DHT22;31788;6.954;-71.872;2023-02-28T07:26:12;27.90;85.40
46055;DHT22;31788;6.954;-71.872;2023-02-28T07:28:41;28.00;85.20
46055;DHT22;31788;6.954;-71.872;2023-02-28T07:31:11;28.00;84.90
46055;DHT22;31788;6.954;-71.872;2023-02-28T07:33:40;28.00;84.70
46055;DHT22;31788;6.954;-71.872;2023-02-28T07:36:10;28.00;84.60
46055;DHT22;31788;6.954;-71.872;2023-02-28T07:38:45;28.00;84.60
46055;DHT22;31788;6.954;-71.872;2023-02-28T07:41:17;28.00;84.90
46055;DHT22;31788;6.954;-71.872;2023-02-28T07:43:45;27.90;85.00
46055;DHT22;31788;6.954;-71.872;2023-02-28T07:46:14;27.90;85.40
46055;DHT22;31788;6.954;-71.872;2023-02-28T07:48:41;27.90;85.40
46055;DHT22;31788;6.954;-71.872;2023-02-28T07:51:08;27.90;85.10
46055;DHT22;31788;6.954;-71.872;2023-02-28T07:53:34;27.90;85.40
46055;DHT22;31788;6.954;-71.872;2023-02-28T07:56:02;27.80;85.70
46055;DHT22;31788;6.954;-71.872;2023-02-28T07:58:29;27.80;86.20
46055;DHT22;31788;6.954;-71.872;2023-02-28T08:00:56;27.80;86.30
46055;DHT22;31788;6.954;-71.872;2023-02-28T08:03:24;27.70;86.40
46055;DHT22;31788;6.954;-71.872;2023-02-28T08:05:51;27.70;86.90
46055;DHT22;31788;6.954;-71.872;2023-02-28T08:08:20;27.60;86.80
46055;DHT22;31788;6.954;-71.872;2023-02-28T08:10:47;27.70;87.10
46055;DHT22;31788;6.954;-71.872;2023-02-28T08:13:13;27.60;87.40
46055;DHT22;31788;6.954;-71.872;2023-02-28T08:15:42;27.50;87.80
46055;DHT22;31788;6.954;-71.872;2023-02-28T08:18:09;27.40;88.20
46055;DHT22;31788;6.954;-71.872;2023-02-28T08:20:36;27.30;88.50
46055;DHT22;31788;6.954;-71.872;2023-02-28T08:23:02;27.30;88.50
46055;DHT22;31788;6.954;-71.872;2023-02-28T08:25:29;27.20;88.80
46055;DHT22;31788;6.954;-71.872;2023-02-28T08:27:55;27.20;88.00
46055;DHT22;31788;6.954;-71.872;2023-02-28T08:30:22;27.30;87.80
46055;DHT22;31788;6.954;-71.872;2023-02-28T08:32:49;27.40;87.30
46055;DHT22;31788;6.954;-71.872;2023-02-28T08:35:15;27.40;86.90
46055;DHT22;31788;6.954;-71.872;2023-02-28T08:37:42;27.40;86.60
46055;DHT22;31788;6.954;-71.872;2023-02-28T08:40:09;27.40;86.20
46055;DHT22;31788;6.954;-71.872;2023-02-28T08:42:39;27.40;86.20
46055;DHT22;31788;6.954;-71.872;2023-02-28T08:45:06;27.40;86.20
46055;DHT22;31788;6.954;-71.872;2023-02-28T08:47:33;27.40;86.00
46055;DHT22;31788;6.954;-71.872;2023-02-28T08:49:59;27.50;85.80
46055;DHT22;31788;6.954;-71.872;2023-02-28T08:52:26;27.50;85.90
46055;DHT22;31788;6.954;-71.872;2023-02-28T08:54:53;27.50;85.70
46055;DHT22;31788;6.954;-71.872;2023-02-28T08:57:19;27.50;85.60
46055;DHT22;31788;6.954;-71.872;2023-02-28T08:59:46;27.60;85.60
46055;DHT22;31788;6.954;-71.872;2023-02-28T09:02:14;27.60;85.50
46055;DHT22;31788;6.954;-71.872;2023-02-28T09:04:41;27.60;85.40
46055;DHT22;31788;6.954;-71.872;2023-02-28T09:07:08;27.60;85.30
46055;DHT22;31788;6.954;-71.872;2023-02-28T09:09:34;27.60;85.30
46055;DHT22;31788;6.954;-71.872;2023-02-28T09:12:01;27.50;85.30
46055;DHT22;31788;6.954;-71.872;2023-02-28T09:14:28;27.60;85.30
46055;DHT22;31788;6.954;-71.872;2023-02-28T09:16:54;27.50;85.50
46055;DHT22;31788;6.954;-71.872;2023-02-28T09:19:21;27.50;85.80
46055;DHT22;31788;6.954;-71.872;2023-02-28T09:21:48;27.50;86.10
46055;DHT22;31788;6.954;-71.872;2023-02-28T09:24:14;27.50;85.50
46055;DHT22;31788;6.954;-71.872;2023-02-28T09:26:41;27.50;85.30
46055;DHT22;31788;6.954;-71.872;2023-02-28T09:29:08;27.50;85.50
46055;DHT22;31788;6.954;-71.872;2023-02-28T09:31:34;27.50;86.10
46055;DHT22;31788;6.954;-71.872;2023-02-28T09:34:01;27.50;86.20
46055;DHT22;31788;6.954;-71.872;2023-02-28T09:36:28;27.50;86.00
46055;DHT22;31788;6.954;-71.872;2023-02-28T09:38:55;27.50;86.50
46055;DHT22;31788;6.954;-71.872;2023-02-28T09:41:26;27.40;86.40
46055;DHT22;31788;6.954;-71.872;2023-02-28T09:43:59;27.40;86.40
46055;DHT22;31788;6.954;-71.872;2023-02-28T09:48:57;27.40;86.80
46055;DHT22;31788;6.954;-71.872;2023-02-28T09:54:27;27.40;87.40
46055;DHT22;31788;6.954;-71.872;2023-02-28T09:57:08;27.30;87.40
46055;DHT22;31788;6.954;-71.872;2023-02-28T10:05:35;27.30;87.20
46055;DHT22;31788;6.954;-71.872;2023-02-28T10:10:43;27.30;87.50
46055;DHT22;31788;6.954;-71.872;2023-02-28T10:13:36;27.30;87.40
46055;DHT22;31788;6.954;-71.872;2023-02-28T10:16:17;27.40;88.10
46055;DHT22;31788;6.954;-71.872;2023-02-28T10:18:56;27.30;88.10
46055;DHT22;31788;6.954;-71.872;2023-02-28T10:24:26;27.30;87.70
46055;DHT22;31788;6.954;-71.872;2023-02-28T10:27:00;27.30;87.60
46055;DHT22;31788;6.954;-71.872;2023-02-28T10:29:28;27.30;87.90
46055;DHT22;31788;6.954;-71.872;2023-02-28T10:32:01;27.30;87.90
46055;DHT22;31788;6.954;-71.872;2023-02-28T10:34:28;27.20;88.30
46055;DHT22;31788;6.954;-71.872;2023-02-28T10:36:56;27.20;88.40
46055;DHT22;31788;6.954;-71.872;2023-02-28T10:42:04;27.20;88.60
46055;DHT22;31788;6.954;-71.872;2023-02-28T10:44:31;27.20;89.10
46055;DHT22;31788;6.954;-71.872;2023-02-28T10:46:58;27.20;89.50
46055;DHT22;31788;6.954;-71.872;2023-02-28T10:49:27;27.10;89.60
46055;DHT22;31788;6.954;-71.872;2023-02-28T10:51:58;27.10;89.60
46055;DHT22;31788;6.954;-71.872;2023-02-28T10:54:34;27.00;89.70
46055;DHT22;31788;6.954;-71.872;2023-02-28T10:59:36;27.10;90.20
46055;DHT22;31788;6.954;-71.872;2023-02-28T11:02:07;27.10;90.20
46055;DHT22;31788;6.954;-71.872;2023-02-28T11:04:49;27.00;90.30
46055;DHT22;31788;6.954;-71.872;2023-02-28T11:07:23;27.10;90.20
46055;DHT22;31788;6.954;-71.872;2023-02-28T11:09:56;27.10;90.10
46055;DHT22;31788;6.954;-71.872;2023-02-28T11:12:33;27.10;90.20
46055;DHT22;31788;6.954;-71.872;2023-02-28T11:15:07;27.00;90.10
46055;DHT22;31788;6.954;-71.872;2023-02-28T11:17:57;27.10;90.10
46055;DHT22;31788;6.954;-71.872;2023-02-28T11:20:26;27.10;90.00
46055;DHT22;31788;6.954;-71.872;2023-02-28T11:22:55;27.20;89.30
46055;DHT22;31788;6.954;-71.872;2023-02-28T11:25:27;27.20;89.40
46055;DHT22;31788;6.954;-71.872;2023-02-28T11:28:27;27.20;89.00
46055;DHT22;31788;6.954;-71.872;2023-02-28T11:31:13;27.20;89.70
46055;DHT22;31788;6.954;-71.872;2023-02-28T11:38:48;27.20;90.00
46055;DHT22;31788;6.954;-71.872;2023-02-28T11:44:48;27.20;89.90
46055;DHT22;31788;6.954;-71.872;2023-02-28T11:50:38;27.20;90.20
46055;DHT22;31788;6.954;-71.872;2023-02-28T11:53:21;27.20;90.20
46055;DHT22;31788;6.954;-71.872;2023-02-28T11:55:54;27.30;90.50
46055;DHT22;31788;6.954;-71.872;2023-02-28T11:58:50;27.20;90.60
46055;DHT22;31788;6.954;-71.872;2023-02-28T12:01:19;27.20;90.70
46055;DHT22;31788;6.954;-71.872;2023-02-28T12:21:31;27.20;90.90
46055;DHT22;31788;6.954;-71.872;2023-02-28T12:24:49;27.30;91.00
46055;DHT22;31788;6.954;-71.872;2023-02-28T12:27:23;27.30;91.60
46055;DHT22;31788;6.954;-71.872;2023-02-28T12:32:26;27.30;91.20
46055;DHT22;31788;6.954;-71.872;2023-02-28T12:35:12;27.20;91.20
46055;DHT22;31788;6.954;-71.872;2023-02-28T12:40:22;27.20;91.30
46055;DHT22;31788;6.954;-71.872;2023-02-28T12:43:16;27.20;91.50
46055;DHT22;31788;6.954;-71.872;2023-02-28T12:45:54;27.20;91.60
46055;DHT22;31788;6.954;-71.872;2023-02-28T12:50:58;27.20;93.00
46055;DHT22;31788;6.954;-71.872;2023-02-28T12:56:34;27.10;92.90
46055;DHT22;31788;6.954;-71.872;2023-02-28T12:59:19;27.10;93.10
46055;DHT22;31788;6.954;-71.872;2023-02-28T13:10:44;27.00;93.80
46055;DHT22;31788;6.954;-71.872;2023-02-28T13:13:17;27.00;93.80
46055;DHT22;31788;6.954;-71.872;2023-02-28T13:16:06;27.00;94.10
46055;DHT22;31788;6.954;-71.872;2023-02-28T13:18:39;26.90;94.30
46055;DHT22;31788;6.954;-71.872;2023-02-28T13:21:22;26.90;94.60
46055;DHT22;31788;6.954;-71.872;2023-02-28T13:39:53;26.70;95.40
46055;DHT22;31788;6.954;-71.872;2023-02-28T13:47:53;26.60;96.10
46055;DHT22;31788;6.954;-71.872;2023-02-28T13:50:23;26.60;96.50
46055;DHT22;31788;6.954;-71.872;2023-02-28T14:07:01;26.70;95.80
46055;DHT22;31788;6.954;-71.872;2023-02-28T14:09:38;26.70;95.50
46055;DHT22;31788;6.954;-71.872;2023-02-28T14:17:57;26.70;95.80
46055;DHT22;31788;6.954;-71.872;2023-02-28T14:20:29;26.70;96.00
46055;DHT22;31788;6.954;-71.872;2023-02-28T14:37:28;26.90;95.70
46055;DHT22;31788;6.954;-71.872;2023-02-28T14:39:57;26.90;95.60
46055;DHT22;31788;6.954;-71.872;2023-02-28T14:42:36;26.90;95.70
46055;DHT22;31788;6.954;-71.872;2023-02-28T14:45:04;26.90;95.40
46055;DHT22;31788;6.954;-71.872;2023-02-28T14:47:33;26.90;95.10
46055;DHT22;31788;6.954;-71.872;2023-02-28T14:50:03;27.00;95.10
46055;DHT22;31788;6.954;-71.872;2023-02-28T14:52:31;27.00;95.00
46055;DHT22;31788;6.954;-71.872;2023-02-28T14:54:59;27.10;95.10
46055;DHT22;31788;6.954;-71.872;2023-02-28T14:57:29;27.10;95.20
46055;DHT22;31788;6.954;-71.872;2023-02-28T15:02:39;27.20;95.10
46055;DHT22;31788;6.954;-71.872;2023-02-28T15:07:46;27.30;95.60
46055;DHT22;31788;6.954;-71.872;2023-02-28T15:10:27;27.30;95.90
46055;DHT22;31788;6.954;-71.872;2023-02-28T15:13:02;27.30;95.80
46055;DHT22;31788;6.954;-71.872;2023-02-28T15:15:56;27.40;95.60
46055;DHT22;31788;6.954;-71.872;2023-02-28T15:19:01;27.40;95.50
46055;DHT22;31788;6.954;-71.872;2023-02-28T15:21:22;27.40;95.60
46055;DHT22;31788;6.954;-71.872;2023-02-28T15:26:56;27.50;95.70
46055;DHT22;31788;6.954;-71.872;2023-02-28T15:29:25;27.60;95.40
46055;DHT22;31788;6.954;-71.872;2023-02-28T15:32:06;27.60;95.80
46055;DHT22;31788;6.954;-71.872;2023-02-28T15:34:44;27.60;95.50
46055;DHT22;31788;6.954;-71.872;2023-02-28T15:40:27;27.60;95.60
46055;DHT22;31788;6.954;-71.872;2023-02-28T15:43:00;27.60;95.50
46055;DHT22;31788;6.954;-71.872;2023-02-28T15:45:41;27.60;95.30
46055;DHT22;31788;6.954;-71.872;2023-02-28T15:51:17;27.60;95.80
46055;DHT22;31788;6.954;-71.872;2023-02-28T15:54:01;27.70;95.50
46055;DHT22;31788;6.954;-71.872;2023-02-28T15:56:31;27.60;95.60
46055;DHT22;31788;6.954;-71.872;2023-02-28T15:59:03;27.60;96.00
46055;DHT22;31788;6.954;-71.872;2023-02-28T16:01:36;27.60;96.60
46055;DHT22;31788;6.954;-71.872;2023-02-28T16:04:22;27.60;96.40
46055;DHT22;31788;6.954;-71.872;2023-02-28T16:09:25;27.60;96.30
46055;DHT22;31788;6.954;-71.872;2023-02-28T16:11:55;27.60;96.50
46055;DHT22;31788;6.954;-71.872;2023-02-28T16:14:25;27.50;96.30
46055;DHT22;31788;6.954;-71.872;2023-02-28T16:17:03;27.50;96.30
46055;DHT22;31788;6.954;-71.872;2023-02-28T16:19:30;27.50;96.30
46055;DHT22;31788;6.954;-71.872;2023-02-28T16:21:57;27.60;96.30
46055;DHT22;31788;6.954;-71.872;2023-02-28T16:24:24;27.60;95.90
46055;DHT22;31788;6.954;-71.872;2023-02-28T16:26:53;27.70;95.90
46055;DHT22;31788;6.954;-71.872;2023-02-28T16:29:34;27.70;95.80
46055;DHT22;31788;6.954;-71.872;2023-02-28T16:32:04;27.70;95.60
46055;DHT22;31788;6.954;-71.872;2023-02-28T16:34:31;27.70;95.80
46055;DHT22;31788;6.954;-71.872;2023-02-28T16:36:58;27.70;95.70
46055;DHT22;31788;6.954;-71.872;2023-02-28T16:39:25;27.70;95.70
46055;DHT22;31788;6.954;-71.872;2023-02-28T16:41:52;27.70;95.40
46055;DHT22;31788;6.954;-71.872;2023-02-28T16:46:48;27.80;95.10
46055;DHT22;31788;6.954;-71.872;2023-02-28T16:49:15;27.80;95.10
46055;DHT22;31788;6.954;-71.872;2023-02-28T16:51:41;27.80;95.00
46055;DHT22;31788;6.954;-71.872;2023-02-28T16:54:08;27.90;94.70
46055;DHT22;31788;6.954;-71.872;2023-02-28T16:56:34;27.90;94.80
46055;DHT22;31788;6.954;-71.872;2023-02-28T16:59:02;27.90;94.70
46055;DHT22;31788;6.954;-71.872;2023-02-28T17:01:29;28.00;94.60
46055;DHT22;31788;6.954;-71.872;2023-02-28T17:03:56;28.00;94.80
46055;DHT22;31788;6.954;-71.872;2023-02-28T17:06:27;28.00;94.40
46055;DHT22;31788;6.954;-71.872;2023-02-28T17:08:55;28.00;94.50
46055;DHT22;31788;6.954;-71.872;2023-02-28T17:11:22;28.00;94.40
46055;DHT22;31788;6.954;-71.872;2023-02-28T17:13:49;28.10;94.30
46055;DHT22;31788;6.954;-71.872;2023-02-28T17:16:28;28.10;94.40
46055;DHT22;31788;6.954;-71.872;2023-02-28T17:18:59;28.10;94.40
46055;DHT22;31788;6.954;-71.872;2023-02-28T17:21:26;28.10;94.40
46055;DHT22;31788;6.954;-71.872;2023-02-28T17:23:53;28.20;94.40
46055;DHT22;31788;6.954;-71.872;2023-02-28T17:26:20;28.20;94.60
46055;DHT22;31788;6.954;-71.872;2023-02-28T17:28:48;28.20;94.50
46055;DHT22;31788;6.954;-71.872;2023-02-28T17:31:17;28.20;94.40
46055;DHT22;31788;6.954;-71.872;2023-02-28T17:33:44;28.30;94.40
46055;DHT22;31788;6.954;-71.872;2023-02-28T17:36:16;28.20;94.40
46055;DHT22;31788;6.954;-71.872;2023-02-28T17:38:43;28.30;94.20
46055;DHT22;31788;6.954;-71.872;2023-02-28T17:41:12;28.30;94.20
46055;DHT22;31788;6.954;-71.872;2023-02-28T17:43:39;28.30;94.20
46055;DHT22;31788;6.954;-71.872;2023-02-28T17:46:16;28.30;93.90
46055;DHT22;31788;6.954;-71.872;2023-02-28T17:48:44;28.40;93.80
46055;DHT22;31788;6.954;-71.872;2023-02-28T17:51:13;28.50;93.70
46055;DHT22;31788;6.954;-71.872;2023-02-28T17:53:40;28.50;93.60
46055;DHT22;31788;6.954;-71.872;2023-02-28T17:58:44;28.50;93.20
46055;DHT22;31788;6.954;-71.872;2023-02-28T18:01:10;28.50;92.10
46055;DHT22;31788;6.954;-71.872;2023-02-28T18:03:38;28.60;92.20
46055;DHT22;31788;6.954;-71.872;2023-02-28T18:06:06;28.60;92.60
46055;DHT22;31788;6.954;-71.872;2023-02-28T18:08:32;28.60;92.40
46055;DHT22;31788;6.954;-71.872;2023-02-28T18:11:01;28.70;92.30
46055;DHT22;31788;6.954;-71.872;2023-02-28T18:13:28;28.70;91.90
46055;DHT22;31788;6.954;-71.872;2023-02-28T18:15:54;28.70;90.80
46055;DHT22;31788;6.954;-71.872;2023-02-28T18:18:21;28.70;91.10
46055;DHT22;31788;6.954;-71.872;2023-02-28T18:20:48;28.70;90.90
46055;DHT22;31788;6.954;-71.872;2023-02-28T18:23:15;28.70;90.60
46055;DHT22;31788;6.954;-71.872;2023-02-28T18:25:44;28.70;90.20
46055;DHT22;31788;6.954;-71.872;2023-02-28T18:28:10;28.80;90.50
46055;DHT22;31788;6.954;-71.872;2023-02-28T18:30:37;28.80;90.40
46055;DHT22;31788;6.954;-71.872;2023-02-28T18:33:04;28.80;90.40
46055;DHT22;31788;6.954;-71.872;2023-02-28T18:35:31;28.80;90.20
46055;DHT22;31788;6.954;-71.872;2023-02-28T18:38:06;28.80;90.10
46055;DHT22;31788;6.954;-71.872;2023-02-28T18:40:34;28.80;90.00
46055;DHT22;31788;6.954;-71.872;2023-02-28T18:43:01;28.80;89.00
46055;DHT22;31788;6.954;-71.872;2023-02-28T18:45:28;28.80;89.00